Startpagina
METAR-TAF:

METAR-TAF

Vliegvelden :

Kenneth Kaunda International Airport

Lusaka, Zambia

breedte: 15-19-51S, lengte: 028-27-09E, hoogte: 1152 m

Actueel weer

Dit bericht is 4 uur en het 43 minuten geleden gemaakt, om 10:00 UTC
Wind 8 kt uit het oostnoordoosten
Temperatuur 26°C
Vochtigheid 21%
Druk 1025 hPa
Zicht: 9000 m

METAR: FLKK 151000Z 06008KT 9000 /// 26/02 Q1025

Tijdstip: 16:43 (14:43 UTC)

Verwachting

Dit bericht is 16 uur en het 43 minuten geleden gemaakt, om 22:00 UTC
Verwachting geldig van 15 om 00 UTC tot 16 om 06 UTC
Wind 5 kt uit het oosten
Zicht 10 km of meer
geen wolken onder 1500 m en geen cumulonimbus

TAF: FLKK 142200Z 1500/1606 09005KT CAVOK

Waarnemingen en weersverwachtingen van meer dan 4000 vliegvelden (METAR en TAF).

De beschikbare stations zijn de gele en rode punten op de kaart.

Ga met uw muis naar het station om de naam te zien.

Klik dan om waarnemingen en weersverwachtingen te zien.

kaart wijzigen: klik op de groene knoppen met een zwart kruis om in te zoomen, op de groene knop met een streepje om uit te zoomen of op de groene pijlen voor aangrenzende kaarten.


METAR-TAF: